.
WxDataArchive / Data Records for 2015-01-09
2015-01-08 January 2015 2015-01-10

Data Records for Friday, 09 January 2015

Time	Temp	Chill	HIndex	Humid	Dewpt	 Wind 	HiWind	WindDir	Rain 	Barom
-----	----	-----	------	-----	-----	------	------	-------	-----	-----
00:00	16.1	16.1	16.1	81	11.3	2	7	248	0.00	29.859 
00:05	16.2	9.8	16.2	81	11.4	4	11	248	0.00	29.859 
00:10	16.2	16.2	16.2	81	11.4	3	11	248	0.00	29.859 
00:15	16.4	16.4	16.4	82	11.9	3	9	248	0.00	29.862 
00:20	16.5	16.5	16.5	82	12.0	3	11	248	0.00	29.862 
00:25	16.7	16.7	16.7	82	12.2	2	7	248	0.00	29.862 
00:30	16.9	16.9	16.9	82	12.4	2	7	248	0.00	29.856 
00:35	17.0	17.0	17.0	82	12.5	3	7	248	0.00	29.856 
00:40	17.2	17.2	17.2	81	12.4	3	11	248	0.00	29.856 
00:45	17.5	11.3	17.5	81	12.7	4	14	248	0.00	29.856 
00:50	17.7	17.7	17.7	81	12.9	3	10	248	0.00	29.856 
00:55	17.7	17.7	17.7	81	12.9	1	5	248	0.00	29.856 
01:00	17.8	17.8	17.8	81	13.0	3	6	248	0.00	29.859 
01:05	17.8	17.8	17.8	81	13.0	2	7	248	0.00	29.859 
01:10	18.0	18.0	18.0	82	13.5	3	9	248	0.00	29.859 
01:15	18.0	18.0	18.0	82	13.5	2	6	248	0.00	29.861 
01:20	18.0	18.0	18.0	83	13.7	3	10	248	0.00	29.861 
01:25	18.1	18.1	18.1	83	13.8	3	10	248	0.00	29.861 
01:30	18.1	18.1	18.1	84	14.1	2	4	248	0.00	29.874 
01:35	18.1	18.1	18.1	84	14.1	3	5	248	0.00	29.874 
01:40	18.1	18.1	18.1	84	14.1	3	6	248	0.00	29.874 
01:45	18.3	18.3	18.3	83	14.0	3	7	248	0.00	29.875 
01:50	18.4	18.4	18.4	82	13.8	3	6	270	0.00	29.875 
01:55	18.4	12.4	18.4	81	13.6	4	7	270	0.00	29.875 
02:00	18.4	12.4	18.4	80	13.3	4	9	270	0.00	29.886 
02:05	18.3	18.3	18.3	78	12.6	3	7	248	0.00	29.886 
02:10	18.1	12.0	18.1	76	11.8	4	10	270	0.00	29.886 
02:15	18.1	18.1	18.1	75	11.5	3	7	270	0.00	29.894 
02:20	18.1	12.0	18.1	74	11.2	4	7	270	0.00	29.894 
02:25	18.1	18.1	18.1	74	11.2	3	6	248	0.00	29.894 
02:30	18.0	18.0	18.0	73	10.8	2	6	248	0.00	29.907 
02:35	17.8	17.8	17.8	72	10.3	3	5	292	0.00	29.907 
02:40	17.8	17.8	17.8	72	10.3	3	6	270	0.00	29.907 
02:45	17.8	17.8	17.8	71	10.0	3	7	270	0.00	29.923 
02:50	17.8	17.8	17.8	70	9.7	3	6	270	0.00	29.923 
02:55	17.7	17.7	17.7	70	9.6	3	10	270	0.00	29.923 
03:00	17.5	11.3	17.5	69	9.1	4	12	270	0.00	29.944 
03:05	17.3	11.1	17.3	69	8.9	4	7	270	0.00	29.944 
03:10	17.2	11.0	17.2	68	8.5	4	11	270	0.00	29.944 
03:15	17.0	10.7	17.0	68	8.3	4	6	270	0.00	29.955 
03:20	16.9	16.9	16.9	69	8.5	3	9	248	0.00	29.955 
03:25	16.7	9.1	16.7	69	8.3	5	13	270	0.00	29.955 
03:30	16.5	10.2	16.5	70	8.5	4	8	270	0.00	29.971 
03:35	16.4	10.1	16.4	71	8.7	4	7	270	0.00	29.971 
03:40	16.2	16.2	16.2	72	8.8	3	6	270	0.00	29.971 
03:45	16.1	16.1	16.1	74	9.3	2	5	270	0.00	29.990 
03:50	15.9	15.9	15.9	77	10.0	2	6	292	0.00	29.990 
03:55	15.6	15.6	15.6	79	10.3	1	3	270	0.00	29.990 
04:00	15.2	15.2	15.2	79	9.9	2	5	292	0.00	30.003 
04:05	15.1	15.1	15.1	79	9.8	2	6	270	0.00	30.003 
04:10	15.1	15.1	15.1	79	9.8	2	6	270	0.00	30.003 
04:15	14.9	14.9	14.9	77	9.0	3	5	270	0.00	30.016 
04:20	14.9	14.9	14.9	76	8.7	2	5	270	0.00	30.016 
04:25	14.8	14.8	14.8	75	8.3	3	5	270	0.00	30.016 
04:30	14.8	14.8	14.8	76	8.6	3	6	270	0.00	30.025 
04:35	14.8	14.8	14.8	77	8.9	2	4	270	0.00	30.025 
04:40	14.8	14.8	14.8	79	9.5	2	3	270	0.00	30.025 
04:45	14.4	14.4	14.4	80	9.4	1	3	270	0.00	30.036 
04:50	14.3	14.3	14.3	81	9.6	2	6	270	0.00	30.036 
04:55	13.8	13.8	13.8	81	9.1	2	4	248	0.00	30.036 
05:00	13.6	13.6	13.6	81	8.9	2	4	270	0.00	30.047 
05:05	13.5	13.5	13.5	81	8.8	1	4	270	0.00	30.047 
05:10	13.3	13.3	13.3	81	8.6	2	4	270	0.00	30.047 
05:15	12.9	12.9	12.9	81	8.2	2	5	270	0.00	30.056 
05:20	12.8	12.8	12.8	80	7.8	2	5	270	0.00	30.056 
05:25	12.6	12.6	12.6	80	7.6	2	4	270	0.00	30.056 
05:30	12.3	12.3	12.3	79	7.1	2	5	248	0.00	30.067 
05:35	12.1	12.1	12.1	79	6.9	2	5	248	0.00	30.067 
05:40	11.9	11.9	11.9	79	6.7	1	4	248	0.00	30.067 
05:45	11.7	11.7	11.7	79	6.5	1	3	248	0.00	30.082 
05:50	11.7	11.7	11.7	79	6.5	2	4	248	0.00	30.082 
05:55	11.6	11.6	11.6	79	6.4	2	4	248	0.00	30.082 
06:00	11.6	11.6	11.6	78	6.1	2	3	248	0.00	30.084 
06:05	11.4	11.4	11.4	78	5.9	2	4	248	0.00	30.084 
06:10	11.4	11.4	11.4	77	5.6	1	4	248	0.00	30.084 
06:15	11.2	11.2	11.2	77	5.4	1	4	248	0.00	30.096 
06:20	11.1	11.1	11.1	77	5.3	1	4	248	0.00	30.096 
06:25	11.1	11.1	11.1	77	5.3	1	3	248	0.00	30.096 
06:30	10.9	10.9	10.9	77	5.1	2	4	248	0.00	30.103 
06:35	10.9	10.9	10.9	77	5.1	2	5	248	0.00	30.103 
06:40	10.7	10.7	10.7	77	4.9	2	6	292	0.00	30.103 
06:45	10.7	10.7	10.7	77	4.9	2	4	248	0.00	30.116 
06:50	10.5	10.5	10.5	77	4.7	3	6	248	0.00	30.116 
06:55	10.4	10.4	10.4	76	4.4	2	4	270	0.00	30.116 
07:00	10.0	10.0	10.0	76	4.0	2	4	270	0.00	30.123 
07:05	9.9	9.9	9.9	75	3.6	2	4	248	0.00	30.123 
07:10	9.7	9.7	9.7	75	3.4	2	4	248	0.00	30.123 
07:15	9.5	9.5	9.5	74	2.9	2	4	270	0.00	30.137 
07:20	9.3	9.3	9.3	73	2.4	1	5	248	0.00	30.137 
07:25	9.2	9.2	9.2	73	2.3	2	5	248	0.00	30.137 
07:30	9.0	9.0	9.0	73	2.1	1	3	248	0.00	30.145 
07:35	8.8	8.8	8.8	73	1.9	2	4	248	0.00	30.145 
07:40	8.6	8.6	8.6	73	1.8	1	4	248	0.00	30.145 
07:45	8.6	8.6	8.6	72	1.5	2	5	270	0.00	30.151 
07:50	8.6	8.6	8.6	72	1.5	2	5	270	0.00	30.151 
07:55	8.4	8.4	8.4	72	1.3	1	5	248	0.00	30.151 
08:00	8.4	8.4	8.4	71	1.0	2	4	248	0.00	30.164 
08:05	8.3	8.3	8.3	71	0.9	1	3	270	0.00	30.164 
08:10	8.3	8.3	8.3	71	0.9	1	3	270	0.00	30.164 
08:15	8.3	8.3	8.3	71	0.9	1	5	270	0.00	30.178 
08:20	8.1	8.1	8.1	70	0.4	1	3	270	0.00	30.178 
08:25	8.1	8.1	8.1	70	0.4	2	4	248	0.00	30.178 
08:30	8.3	8.3	8.3	69	0.3	2	5	270	0.00	30.186 
08:35	8.3	8.3	8.3	69	0.3	1	3	270	0.00	30.186 
08:40	8.3	8.3	8.3	69	0.3	2	4	248	0.00	30.186 
08:45	8.6	8.6	8.6	68	0.2	2	7	270	0.00	30.197 
08:50	8.6	8.6	8.6	68	0.2	2	7	270	0.00	30.197 
08:55	9.0	9.0	9.0	68	0.6	2	5	270	0.00	30.197 
09:00	9.2	9.2	9.2	68	0.8	2	4	270	0.00	30.209 
09:05	9.2	9.2	9.2	69	1.1	3	7	270	0.00	30.209 
09:10	9.3	9.3	9.3	69	1.2	3	6	270	0.00	30.209 
09:15	9.5	9.5	9.5	69	1.4	2	4	248	0.00	30.207 
09:20	9.5	9.5	9.5	69	1.4	2	5	270	0.00	30.207 
09:25	9.7	9.7	9.7	70	1.9	2	6	248	0.00	30.207 
09:30	9.7	9.7	9.7	70	1.9	2	5	270	0.00	30.217 
09:35	9.7	9.7	9.7	70	1.9	3	7	270	0.00	30.217 
09:40	9.9	9.9	9.9	70	2.1	3	5	270	0.00	30.217 
09:45	9.9	9.9	9.9	70	2.1	3	6	248	0.00	30.221 
09:50	9.9	9.9	9.9	70	2.1	2	6	248	0.00	30.221 
09:55	9.9	9.9	9.9	70	2.1	2	6	248	0.00	30.221 
10:00	9.9	9.9	9.9	70	2.1	2	6	248	0.00	30.221 
10:05	9.9	9.9	9.9	69	1.8	3	6	248	0.00	30.221 
10:10	9.9	9.9	9.9	69	1.8	3	5	270	0.00	30.221 
10:15	9.9	9.9	9.9	69	1.8	3	5	248	0.00	30.231 
10:20	9.9	9.9	9.9	69	1.8	3	7	270	0.00	30.231 
10:25	10.0	10.0	10.0	70	2.2	2	6	248	0.00	30.231 
10:30	10.2	10.2	10.2	70	2.4	1	3	248	0.00	30.236 
10:35	10.2	10.2	10.2	69	2.1	2	6	270	0.00	30.236 
10:40	10.0	10.0	10.0	69	1.9	2	4	248	0.00	30.236 
10:45	9.9	9.9	9.9	68	1.5	3	5	270	0.00	30.236 
10:50	9.7	9.7	9.7	68	1.3	3	6	248	0.00	30.236 
10:55	9.7	9.7	9.7	69	1.6	2	5	248	0.00	30.236 
11:00	9.9	9.9	9.9	69	1.8	3	9	248	0.00	30.236 
11:05	9.9	9.9	9.9	69	1.8	2	6	248	0.00	30.236 
11:10	10.0	10.0	10.0	68	1.6	2	5	248	0.00	30.236 
11:15	10.0	10.0	10.0	67	1.3	2	7	248	0.00	30.235 
11:20	10.0	10.0	10.0	65	0.6	3	6	248	0.00	30.235 
11:25	9.7	9.7	9.7	64	0.0	3	6	270	0.00	30.235 
11:30	9.5	9.5	9.5	64	-0.2	3	6	248	0.00	30.240 
11:35	9.7	9.7	9.7	64	0.0	3	6	248	0.00	30.240 
11:40	9.9	9.9	9.9	64	0.2	3	5	248	0.00	30.240 
11:45	10.2	10.2	10.2	64	0.5	2	6	248	0.00	30.243 
11:50	10.2	10.2	10.2	63	0.1	3	7	270	0.00	30.243 
11:55	10.2	10.2	10.2	64	0.5	3	6	270	0.00	30.243 
12:00	10.2	10.2	10.2	64	0.5	2	6	248	0.00	30.243 
12:05	10.2	10.2	10.2	63	0.1	2	11	248	0.00	30.243 
12:10	10.0	10.0	10.0	64	0.3	2	9	248	0.00	30.243 
12:15	10.2	10.2	10.2	63	0.1	2	7	248	0.00	30.244 
12:20	10.2	10.2	10.2	63	0.1	3	7	270	0.00	30.244 
12:25	10.0	10.0	10.0	63	-0.0	3	7	248	0.00	30.244 
12:30	9.9	9.9	9.9	63	-0.1	3	7	270	0.00	30.247 
12:35	9.9	9.9	9.9	63	-0.1	2	6	270	0.00	30.247 
12:40	10.4	10.4	10.4	63	0.3	2	5	248	0.00	30.247 
12:45	10.7	10.7	10.7	63	0.6	1	9	248	0.00	30.249 
12:50	10.7	10.7	10.7	62	0.3	2	6	248	0.00	30.249 
12:55	10.9	10.9	10.9	62	0.5	1	4	248	0.00	30.249 
13:00	11.1	11.1	11.1	61	0.3	1	4	248	0.00	30.250 
13:05	10.4	10.4	10.4	60	-0.7	3	7	248	0.00	30.250 
13:10	10.0	10.0	10.0	61	-0.7	2	5	270	0.00	30.250 
13:15	10.0	10.0	10.0	60	-1.1	2	7	270	0.00	30.250 
13:20	10.0	10.0	10.0	60	-1.1	3	7	248	0.00	30.250 
13:25	10.2	10.2	10.2	59	-1.2	3	6	270	0.00	30.250 
13:30	9.9	9.9	9.9	59	-1.5	2	6	270	0.00	30.252 
13:35	9.9	9.9	9.9	59	-1.5	2	7	270	0.00	30.252 
13:40	9.7	9.7	9.7	59	-1.7	3	7	248	0.00	30.252 
13:45	9.7	9.7	9.7	59	-1.7	2	5	248	0.00	30.251 
13:50	9.9	9.9	9.9	60	-1.2	2	4	248	0.00	30.251 
13:55	10.0	10.0	10.0	60	-1.1	2	7	248	0.00	30.251 
14:00	9.9	9.9	9.9	60	-1.2	3	6	248	0.00	30.253 
14:05	9.7	9.7	9.7	61	-1.0	2	4	248	0.00	30.253 
14:10	10.0	10.0	10.0	59	-1.4	2	4	270	0.00	30.253 
14:15	10.0	10.0	10.0	58	-1.8	3	9	248	0.00	30.260 
14:20	9.7	9.7	9.7	58	-2.1	3	11	248	0.00	30.260 
14:25	9.9	9.9	9.9	58	-1.9	1	4	248	0.00	30.260 
14:30	9.9	9.9	9.9	57	-2.2	2	6	248	0.00	30.264 
14:35	9.7	9.7	9.7	58	-2.1	2	5	248	0.00	30.264 
14:40	9.7	9.7	9.7	58	-2.1	2	5	248	0.00	30.264 
14:45	9.5	9.5	9.5	57	-2.6	3	7	248	0.00	30.266 
14:50	9.3	9.3	9.3	56	-3.2	3	10	248	0.00	30.266 
14:55	9.2	9.2	9.2	56	-3.3	3	5	270	0.00	30.266 
15:00	9.0	9.0	9.0	57	-3.1	3	9	248	0.00	30.269 
15:05	9.0	9.0	9.0	57	-3.1	2	5	248	0.00	30.269 
15:10	9.2	9.2	9.2	57	-2.9	2	7	248	0.00	30.269 
15:15	8.8	8.8	8.8	57	-3.3	3	6	270	0.00	30.283 
15:20	8.6	8.6	8.6	56	-3.8	3	6	248	0.00	30.283 
15:25	8.4	8.4	8.4	56	-4.0	3	9	270	0.00	30.283 
15:30	8.3	8.3	8.3	57	-3.8	3	6	248	0.00	30.288 
15:35	8.3	8.3	8.3	58	-3.4	2	6	248	0.00	30.288 
15:40	8.1	8.1	8.1	59	-3.2	2	5	270	0.00	30.288 
15:45	8.1	8.1	8.1	58	-3.6	2	5	248	0.00	30.291 
15:50	8.3	8.3	8.3	58	-3.4	2	7	248	0.00	30.291 
15:55	8.3	8.3	8.3	56	-4.1	2	6	270	0.00	30.291 
16:00	7.9	7.9	7.9	54	-5.3	3	9	248	0.00	30.301 
16:05	7.6	-0.1	7.6	55	-5.2	4	6	270	0.00	30.301 
16:10	7.6	7.6	7.6	56	-4.8	2	5	270	0.00	30.301 
16:15	7.6	7.6	7.6	57	-4.4	2	5	270	0.00	30.305 
16:20	7.6	7.6	7.6	57	-4.4	2	6	270	0.00	30.305 
16:25	7.4	7.4	7.4	58	-4.2	2	5	270	0.00	30.305 
16:30	7.0	7.0	7.0	58	-4.6	2	5	270	0.00	30.316 
16:35	6.9	6.9	6.9	59	-4.4	2	4	270	0.00	30.316 
16:40	6.7	6.7	6.7	59	-4.5	1	4	248	0.00	30.316 
16:45	6.5	6.5	6.5	59	-4.7	3	6	270	0.00	30.321 
16:50	6.5	6.5	6.5	60	-4.4	3	5	270	0.00	30.321 
16:55	6.3	6.3	6.3	60	-4.6	2	5	270	0.00	30.321 
17:00	6.1	6.1	6.1	60	-4.8	3	7	270	0.00	30.323 
17:05	6.1	6.1	6.1	60	-4.8	3	7	248	0.00	30.323 
17:10	6.0	6.0	6.0	60	-4.9	2	5	248	0.00	30.323 
17:15	5.8	5.8	5.8	59	-5.4	2	5	248	0.00	30.335 
17:20	5.6	5.6	5.6	58	-5.9	3	6	248	0.00	30.335 
17:25	5.4	5.4	5.4	57	-6.5	3	10	270	0.00	30.335 
17:30	5.4	5.4	5.4	57	-6.5	2	4	248	0.00	30.343 
17:35	5.2	5.2	5.2	57	-6.7	3	5	270	0.00	30.343 
17:40	5.0	5.0	5.0	58	-6.5	2	4	248	0.00	30.343 
17:45	5.0	5.0	5.0	58	-6.5	2	5	270	0.00	30.355 
17:50	5.0	5.0	5.0	59	-6.2	1	4	270	0.00	30.355 
17:55	4.8	4.8	4.8	60	-6.0	1	5	270	0.00	30.355 
18:00	4.7	4.7	4.7	59	-6.4	2	5	270	0.00	30.357 
18:05	4.5	4.5	4.5	59	-6.6	2	5	270	0.00	30.357 
18:10	4.5	4.5	4.5	58	-7.0	2	4	270	0.00	30.357 
18:15	4.5	4.5	4.5	58	-7.0	2	5	248	0.00	30.372 
18:20	4.3	4.3	4.3	58	-7.2	2	5	270	0.00	30.372 
18:25	4.3	4.3	4.3	59	-6.8	1	5	270	0.00	30.372 
18:30	4.3	4.3	4.3	59	-6.8	2	6	248	0.00	30.378 
18:35	4.1	4.1	4.1	60	-6.7	1	5	248	0.00	30.378 
18:40	4.1	4.1	4.1	59	-7.0	1	5	248	0.00	30.378 
18:45	3.9	3.9	3.9	59	-7.2	1	5	248	0.00	30.387 
18:50	3.9	3.9	3.9	58	-7.5	1	4	270	0.00	30.387 
18:55	3.7	3.7	3.7	59	-7.4	1	3	270	0.00	30.387 
19:00	3.5	3.5	3.5	59	-7.6	1	4	270	0.00	30.389 
19:05	3.5	3.5	3.5	61	-6.9	2	5	270	0.00	30.389 
19:10	3.5	3.5	3.5	61	-6.9	0	2	270	0.00	30.389 
19:15	3.4	3.4	3.4	62	-6.7	1	4	248	0.00	30.399 
19:20	3.4	3.4	3.4	62	-6.7	1	3	248	0.00	30.399 
19:25	3.4	3.4	3.4	62	-6.7	1	6	248	0.00	30.399 
19:30	3.4	3.4	3.4	63	-6.3	2	9	248	0.00	30.407 
19:35	3.4	3.4	3.4	63	-6.3	1	3	248	0.00	30.407 
19:40	3.4	3.4	3.4	63	-6.3	1	3	248	0.00	30.407 
19:45	3.4	3.4	3.4	63	-6.3	1	5	248	0.00	30.409 
19:50	3.2	3.2	3.2	63	-6.5	1	3	270	0.00	30.409 
19:55	3.2	3.2	3.2	64	-6.2	1	5	270	0.00	30.409 
20:00	3.2	3.2	3.2	64	-6.2	1	7	248	0.00	30.417 
20:05	3.4	3.4	3.4	64	-6.0	2	6	248	0.00	30.417 
20:10	3.4	3.4	3.4	64	-6.0	1	6	248	0.00	30.417 
20:15	3.2	3.2	3.2	64	-6.2	1	4	248	0.00	30.421 
20:20	3.2	3.2	3.2	64	-6.2	1	4	248	0.00	30.421 
20:25	3.0	3.0	3.0	64	-6.4	1	4	248	0.00	30.421 
20:30	3.0	3.0	3.0	64	-6.4	1	3	248	0.00	30.423 
20:35	3.0	3.0	3.0	64	-6.4	1	4	248	0.00	30.423 
20:40	3.0	3.0	3.0	63	-6.7	1	3	248	0.00	30.423 
20:45	3.0	3.0	3.0	63	-6.7	1	4	248	0.00	30.426 
20:50	3.0	3.0	3.0	62	-7.0	1	4	270	0.00	30.426 
20:55	2.8	2.8	2.8	62	-7.2	1	3	248	0.00	30.426 
21:00	2.8	2.8	2.8	62	-7.2	1	4	248	0.00	30.436 
21:05	2.8	2.8	2.8	62	-7.2	1	4	248	0.00	30.436 
21:10	2.8	2.8	2.8	62	-7.2	2	4	248	0.00	30.436 
21:15	2.8	2.8	2.8	62	-7.2	1	4	248	0.00	30.440 
21:20	2.8	2.8	2.8	62	-7.2	1	6	248	0.00	30.440 
21:25	2.8	2.8	2.8	62	-7.2	1	3	270	0.00	30.440 
21:30	2.6	2.6	2.6	62	-7.4	1	5	248	0.00	30.442 
21:35	2.6	2.6	2.6	62	-7.4	1	4	270	0.00	30.442 
21:40	2.6	2.6	2.6	62	-7.4	1	3	248	0.00	30.442 
21:45	2.6	2.6	2.6	62	-7.4	1	3	270	0.00	30.445 
21:50	2.4	2.4	2.4	62	-7.6	1	3	248	0.00	30.445 
21:55	2.4	2.4	2.4	62	-7.6	1	4	248	0.00	30.445 
22:00	2.4	2.4	2.4	62	-7.6	0	3	248	0.00	30.452 
22:05	2.2	2.2	2.2	62	-7.8	1	5	248	0.00	30.452 
22:10	2.2	2.2	2.2	62	-7.8	1	3	248	0.00	30.452 
22:15	2.2	2.2	2.2	62	-7.8	1	3	248	0.00	30.453 
22:20	2.2	2.2	2.2	62	-7.8	1	4	248	0.00	30.453 
22:25	2.2	2.2	2.2	62	-7.8	1	3	248	0.00	30.453 
22:30	2.0	2.0	2.0	62	-8.0	1	3	248	0.00	30.456 
22:35	2.0	2.0	2.0	62	-8.0	1	3	248	0.00	30.456 
22:40	2.0	2.0	2.0	62	-8.0	1	3	248	0.00	30.456 
22:45	2.0	2.0	2.0	62	-8.0	1	3	248	0.00	30.455 
22:50	1.8	1.8	1.8	62	-8.2	1	3	248	0.00	30.455 
22:55	1.8	1.8	1.8	62	-8.2	1	3	248	0.00	30.455 
23:00	1.8	1.8	1.8	62	-8.2	1	5	248	0.00	30.455 
23:05	1.8	1.8	1.8	62	-8.2	1	4	248	0.00	30.455 
23:10	1.8	1.8	1.8	62	-8.2	1	5	270	0.00	30.455 
23:15	1.7	1.7	1.7	62	-8.3	1	3	270	0.00	30.455 
23:20	1.7	1.7	1.7	62	-8.3	1	4	248	0.00	30.455 
23:25	1.7	1.7	1.7	62	-8.3	1	3	248	0.00	30.455 
23:30	1.5	1.5	1.5	62	-8.5	1	4	248	0.00	30.458 
23:35	1.5	1.5	1.5	62	-8.5	2	5	248	0.00	30.458 
23:40	1.5	1.5	1.5	62	-8.5	0	2	248	0.00	30.458 
23:45	1.5	1.5	1.5	62	-8.5	0	2	248	0.00	30.462 
23:50	1.3	1.3	1.3	62	-8.6	1	3	248	0.00	30.462 
23:55	1.3	1.3	1.3	62	-8.6	1	3	248	0.00	30.462 

CoCoRaHS
IN-AL-39
A2 Web Hosting
Creative Commons License
GoDaddy
search engine by freefind advanced

loaded 2018-11-15 06:24:21 • last modified 2010-11-18 10:43:29
Privacy PolicyDisclaimer
• wx.awcolley.com is powered by PmWiki v.2002016 •
• all content (unless otherwise noted) © 2018 A W Colley